Time;durP1;ratioP1;P1;durP2;ratioP2;P2;SDS_P1;SDS_P2;PMS_P1;PMS_P2;Temp;Humidity;BMP_temperature;BMP_pressure;BME280_temperature;BME280_humidity;BME280_pressure;Samples;Min_cycle;Max_cycle;Signal;HPM_P1;HPM_P2
2023/03/27 00:00:45;;;;;;;10.98;2.85;;;;;;;2.83;91.84;101441.69;5059437;28;20021;-64
2023/03/27 00:03:13;;;;;;;5.47;2.00;;;;;;;2.85;92.47;101444.25;5045198;28;20052;-64
2023/03/27 00:05:39;;;;;;;12.13;2.85;;;;;;;2.87;92.51;101452.94;5062278;28;20078;-64
2023/03/27 00:08:05;;;;;;;9.93;2.45;;;;;;;2.90;92.73;101458.09;5052209;28;20400;-64
2023/03/27 00:10:31;;;;;;;6.97;2.50;;;;;;;2.92;93.44;101464.13;5044741;28;20074;-64
2023/03/27 00:12:56;;;;;;;9.77;2.40;;;;;;;2.92;92.77;101467.59;5061393;28;20748;-63
2023/03/27 00:15:22;;;;;;;13.50;2.47;;;;;;;2.94;92.81;101464.94;5053718;28;20036;-64
2023/03/27 00:17:50;;;;;;;16.80;2.83;;;;;;;2.95;93.18;101472.75;5061828;28;20049;-64
2023/03/27 00:20:21;;;;;;;10.95;2.47;;;;;;;2.94;92.03;101478.91;5044445;28;20428;-64
2023/03/27 00:22:47;;;;;;;7.35;2.75;;;;;;;2.97;92.97;101486.66;5058500;28;20036;-64
2023/03/27 00:25:12;;;;;;;10.80;2.47;;;;;;;2.99;93.17;101489.25;5069835;28;20024;-64
2023/03/27 00:27:38;;;;;;;15.48;2.40;;;;;;;3.00;94.04;101490.97;5056441;28;20029;-64
2023/03/27 00:30:05;;;;;;;5.88;2.20;;;;;;;3.00;93.54;101498.84;5045020;28;20028;-64
2023/03/27 00:32:32;;;;;;;6.53;2.60;;;;;;;3.04;93.97;101502.22;5069684;28;20029;-64
2023/03/27 00:34:57;;;;;;;6.93;2.45;;;;;;;3.03;94.21;101503.97;5067847;28;20078;-64
2023/03/27 00:37:22;;;;;;;11.52;2.80;;;;;;;3.03;93.51;101503.09;5068493;28;20025;-64
2023/03/27 00:39:49;;;;;;;7.45;2.70;;;;;;;3.01;93.90;101492.66;5050312;28;20024;-64
2023/03/27 00:42:21;;;;;;;13.23;2.50;;;;;;;3.02;93.67;101490.91;5052413;28;20402;-64
2023/03/27 00:44:48;;;;;;;11.77;2.60;;;;;;;3.01;93.61;101497.91;5070100;28;21149;-64
2023/03/27 00:47:14;;;;;;;6.65;2.33;;;;;;;3.00;93.62;101508.47;5069590;28;20028;-64
2023/03/27 00:49:40;;;;;;;12.73;2.75;;;;;;;2.98;93.49;101505.88;5070308;28;20116;-64
2023/03/27 00:52:07;;;;;;;8.75;2.28;;;;;;;2.97;93.75;101512.06;5052907;28;20232;-64
2023/03/27 00:54:38;;;;;;;8.55;2.90;;;;;;;2.91;93.21;101510.47;5069753;28;20021;-64
2023/03/27 00:57:08;;;;;;;10.00;2.50;;;;;;;2.90;93.01;101523.69;5069171;28;20058;-64
2023/03/27 00:59:38;;;;;;;5.20;2.28;;;;;;;2.89;94.32;101535.06;5070090;28;20386;-66
2023/03/27 01:02:05;;;;;;;10.63;2.42;;;;;;;2.85;94.37;101536.94;5049274;28;20040;-64
2023/03/27 01:04:31;;;;;;;10.93;2.47;;;;;;;2.83;94.21;101536.16;5070091;28;20027;-64
2023/03/27 01:06:59;;;;;;;11.35;2.80;;;;;;;2.81;94.66;101534.47;5060909;28;20040;-64
2023/03/27 01:09:25;;;;;;;8.02;2.47;;;;;;;2.80;94.30;101528.38;5060300;28;20528;-64
2023/03/27 01:12:07;;;;;;;5.20;2.03;;;;;;;2.81;94.86;101534.47;5043007;28;20036;-64
2023/03/27 01:14:41;;;;;;;9.32;2.35;;;;;;;2.74;93.63;101537.28;5051614;28;20034;-64
2023/03/27 01:17:13;;;;;;;11.32;2.30;;;;;;;2.72;93.83;101539.09;5071955;28;20021;-64
2023/03/27 01:20:09;;;;;;;14.98;2.55;;;;;;;2.73;93.56;101548.69;5072638;28;20024;-64
2023/03/27 01:22:52;;;;;;;10.80;2.45;;;;;;;2.69;94.70;101552.31;5065293;28;20034;-64
2023/03/27 01:25:42;;;;;;;5.88;2.10;;;;;;;2.68;94.41;101549.75;5043170;28;20025;-64
2023/03/27 01:28:46;;;;;;;8.57;2.47;;;;;;;2.69;95.52;101554.94;5055522;28;20485;-64
2023/03/27 01:31:42;;;;;;;7.25;2.17;;;;;;;2.69;95.46;101556.72;5049608;28;20033;-64
2023/03/27 01:34:16;;;;;;;6.82;2.45;;;;;;;2.69;96.34;101557.56;5054758;28;20047;-64
2023/03/27 01:37:09;;;;;;;6.90;2.28;;;;;;;2.69;96.13;101560.19;5043102;28;20123;-64
2023/03/27 01:39:45;;;;;;;6.93;2.38;;;;;;;2.65;96.14;101558.59;5055039;28;20020;-64
2023/03/27 01:42:31;;;;;;;4.95;2.05;;;;;;;2.66;96.62;101567.31;5046582;28;20112;-64
2023/03/27 01:45:07;;;;;;;6.95;2.53;;;;;;;2.68;97.06;101573.34;5063165;28;20036;-64
2023/03/27 01:47:56;;;;;;;5.90;2.38;;;;;;;2.69;96.71;101569.84;5066271;28;20025;-64
2023/03/27 01:50:47;;;;;;;;;;;;;;;2.74;95.43;101579.25;5057367;28;20436;-64
2023/03/27 01:53:19;;;;;;;11.32;2.58;;;;;;;2.67;96.23;101571.66;5052010;28;19916;-64
2023/03/27 01:55:51;;;;;;;7.97;2.50;;;;;;;2.66;97.09;101581.25;5052824;28;20476;-64
2023/03/27 01:58:21;;;;;;;8.98;2.55;;;;;;;2.64;96.62;101582.22;5066060;28;20032;-65
2023/03/27 02:00:52;;;;;;;9.55;2.70;;;;;;;2.65;97.60;101578.69;5055770;28;20452;-64
2023/03/27 02:03:22;;;;;;;5.10;2.72;;;;;;;2.63;98.19;101584.00;5053844;28;20029;-64
2023/03/27 02:05:55;;;;;;;4.63;2.47;;;;;;;2.62;97.17;101581.44;5047879;28;20039;-64
2023/03/27 02:08:28;;;;;;;13.55;3.25;;;;;;;2.61;97.57;101582.31;5058067;28;20117;-65
2023/03/27 02:10:57;;;;;;;12.23;2.83;;;;;;;2.61;98.16;101585.78;5059056;28;20436;-64
2023/03/27 02:13:29;;;;;;;9.18;2.65;;;;;;;2.61;98.08;101598.06;5053355;28;20040;-64
2023/03/27 02:15:58;;;;;;;12.35;2.58;;;;;;;2.61;98.46;101608.56;5054085;28;20033;-64
2023/03/27 02:18:38;;;;;;;10.40;2.78;;;;;;;2.62;98.37;101612.91;5055229;28;20422;-64
2023/03/27 02:21:04;;;;;;;10.20;2.60;;;;;;;2.59;98.74;101616.47;5051995;28;20106;-64
2023/03/27 02:23:31;;;;;;;5.22;2.47;;;;;;;2.59;99.25;101619.09;5039965;28;20039;-64
2023/03/27 02:25:58;;;;;;;10.77;2.80;;;;;;;2.57;98.77;101629.63;5038202;28;20386;-64
2023/03/27 02:28:42;;;;;;;8.15;2.72;;;;;;;2.58;98.89;101619.97;5046824;28;20024;-64
2023/03/27 02:31:26;;;;;;;9.48;2.58;;;;;;;2.61;99.38;101630.38;5053995;28;20022;-64
2023/03/27 02:34:34;;;;;;;9.57;2.53;;;;;;;2.57;98.88;101627.00;5057708;28;20116;-64
2023/03/27 02:37:18;;;;;;;6.10;2.65;;;;;;;2.58;99.16;101627.84;5056865;28;20029;-64
2023/03/27 02:39:56;;;;;;;7.97;2.97;;;;;;;2.53;98.13;101637.63;5042230;28;20513;-64
2023/03/27 02:42:53;;;;;;;10.82;2.40;;;;;;;2.52;98.05;101641.16;5061091;28;20044;-64
2023/03/27 02:45:40;;;;;;;13.05;2.92;;;;;;;2.47;98.83;101640.44;5065912;28;20040;-64
2023/03/27 02:48:11;;;;;;;14.00;3.38;;;;;;;2.43;99.17;101638.81;5061050;28;20032;-64
2023/03/27 02:50:44;;;;;;;6.10;2.55;;;;;;;2.43;98.50;101646.69;5065694;28;20024;-64
2023/03/27 02:53:16;;;;;;;11.70;2.90;;;;;;;2.37;98.23;101639.88;5066527;28;20432;-64
2023/03/27 02:55:49;;;;;;;9.05;2.78;;;;;;;2.34;98.57;101653.91;5070767;28;20043;-64
2023/03/27 02:58:20;;;;;;;9.77;2.53;;;;;;;2.30;98.85;101647.03;5039791;28;20027;-64
2023/03/27 03:00:49;;;;;;;7.82;2.22;;;;;;;2.27;98.46;101652.38;5065760;28;20397;-64
2023/03/27 03:03:16;;;;;;;10.13;2.50;;;;;;;2.26;98.47;101661.13;5054920;28;20481;-64
2023/03/27 03:05:42;;;;;;;6.50;2.50;;;;;;;2.24;98.17;101657.69;5066411;28;20100;-64
2023/03/27 03:08:09;;;;;;;9.52;2.40;;;;;;;2.24;98.58;101659.47;5064614;28;20029;-64
2023/03/27 03:10:35;;;;;;;6.68;2.50;;;;;;;2.21;98.65;101666.53;5066739;28;20033;-64
2023/03/27 03:13:01;;;;;;;6.95;2.40;;;;;;;2.21;98.66;101663.03;5068659;28;20017;-64
2023/03/27 03:15:26;;;;;;;9.93;2.25;;;;;;;2.21;98.82;101663.03;5067025;28;20381;-64
2023/03/27 03:17:52;;;;;;;8.30;2.15;;;;;;;2.19;99.45;101665.69;5061610;28;20165;-64
2023/03/27 03:20:17;;;;;;;9.95;2.50;;;;;;;2.22;99.61;101677.88;5066214;28;20031;-64
2023/03/27 03:22:43;;;;;;;8.15;2.60;;;;;;;2.20;98.97;101675.28;5059711;28;20024;-64
2023/03/27 03:25:11;;;;;;;9.00;2.63;;;;;;;2.19;99.56;101684.03;5052180;28;20498;-63
2023/03/27 03:27:37;;;;;;;7.90;2.70;;;;;;;2.19;98.70;101686.66;5068499;28;20086;-62
2023/03/27 03:30:04;;;;;;;12.02;3.45;;;;;;;2.17;98.72;101693.72;5061595;28;20291;-64
2023/03/27 03:32:29;;;;;;;7.78;2.28;;;;;;;2.15;98.82;101698.16;5047107;28;20016;-63
2023/03/27 03:34:55;;;;;;;8.70;2.45;;;;;;;2.13;98.85;101697.34;5066785;28;20027;-64
2023/03/27 03:37:27;;;;;;;10.80;2.40;;;;;;;2.13;99.36;101709.56;5066142;28;20021;-63
2023/03/27 03:39:52;;;;;;;10.45;2.90;;;;;;;2.11;99.51;101714.00;5056881;28;20056;-64
2023/03/27 03:42:18;;;;;;;6.38;2.40;;;;;;;2.11;99.22;101719.22;5068419;28;20485;-64
2023/03/27 03:44:43;;;;;;;11.32;2.28;;;;;;;2.09;99.17;101721.03;5065303;28;20040;-64
2023/03/27 03:47:08;;;;;;;8.60;2.15;;;;;;;2.08;99.13;101727.16;5064456;28;20025;-64
2023/03/27 03:49:34;;;;;;;10.55;2.50;;;;;;;2.02;99.13;101718.56;5064649;28;20120;-64
2023/03/27 03:51:59;;;;;;;10.90;2.88;;;;;;;2.00;98.72;101725.63;5066149;28;20081;-64
2023/03/27 03:54:24;;;;;;;12.27;2.30;;;;;;;1.97;98.41;101727.47;5065804;28;20028;-64
2023/03/27 03:56:49;;;;;;;8.50;2.80;;;;;;;1.94;99.40;101738.03;5063936;28;20032;-63
2023/03/27 03:59:15;;;;;;;7.43;2.50;;;;;;;1.92;99.52;101732.81;5067369;28;20029;-64
2023/03/27 04:01:40;;;;;;;7.70;2.60;;;;;;;1.93;100.00;101741.53;5064981;28;20508;-64
2023/03/27 04:04:08;;;;;;;10.95;2.70;;;;;;;1.93;100.00;101741.53;5066646;28;20534;-63
2023/03/27 04:06:36;;;;;;;7.53;2.63;;;;;;;1.92;99.74;101751.16;5059605;28;20021;-63
2023/03/27 04:09:02;;;;;;;6.77;2.80;;;;;;;1.93;99.97;101750.28;5063096;28;20339;-64
2023/03/27 04:11:27;;;;;;;6.68;2.53;;;;;;;1.92;99.34;101752.94;5063692;28;20130;-64
2023/03/27 04:13:53;;;;;;;7.97;2.65;;;;;;;1.91;99.61;101759.91;5060482;28;20033;-64
2023/03/27 04:16:18;;;;;;;10.45;3.13;;;;;;;1.90;100.00;101755.59;5060499;28;20032;-63
2023/03/27 04:18:44;;;;;;;5.97;2.33;;;;;;;1.88;100.00;101759.97;5062227;28;20048;-63
2023/03/27 04:21:15;;;;;;;8.95;2.75;;;;;;;1.88;100.00;101764.38;5064195;28;20036;-63
2023/03/27 04:23:41;;;;;;;7.15;2.70;;;;;;;1.84;100.00;101771.44;5057314;28;20041;-63
2023/03/27 04:26:06;;;;;;;6.32;2.38;;;;;;;1.82;100.00;101763.63;5064874;28;20052;-66
2023/03/27 04:28:33;;;;;;;5.32;2.60;;;;;;;1.81;100.00;101776.75;5059298;28;20079;-63
2023/03/27 04:31:05;;;;;;;7.22;2.88;;;;;;;1.80;100.00;101783.78;5050847;28;20083;-63
2023/03/27 04:33:33;;;;;;;8.30;2.45;;;;;;;1.78;100.00;101789.94;5047114;28;20036;-62
2023/03/27 04:36:01;;;;;;;3.95;2.22;;;;;;;1.79;100.00;101791.66;5048626;28;20400;-62
2023/03/27 04:38:27;;;;;;;7.63;2.40;;;;;;;1.79;100.00;101789.03;5050976;28;20548;-64
2023/03/27 04:40:53;;;;;;;12.95;3.28;;;;;;;1.77;100.00;101796.09;5067670;28;20059;-64
2023/03/27 04:43:20;;;;;;;8.73;2.50;;;;;;;1.76;100.00;101807.44;5063668;28;20028;-64
2023/03/27 04:45:46;;;;;;;10.70;2.35;;;;;;;1.73;100.00;101800.50;5059909;28;20032;-64
2023/03/27 04:48:13;;;;;;;12.45;2.20;;;;;;;1.72;100.00;101804.06;5046408;28;20025;-64
2023/03/27 04:50:39;;;;;;;8.48;2.58;;;;;;;1.70;100.00;101808.47;5063695;28;20025;-64
2023/03/27 04:53:05;;;;;;;9.80;2.25;;;;;;;1.71;100.00;101811.94;5051257;28;20039;-64
2023/03/27 04:55:36;;;;;;;7.68;2.42;;;;;;;1.66;100.00;101818.13;5065796;28;20512;-64
2023/03/27 04:58:06;;;;;;;7.85;2.50;;;;;;;1.65;100.00;101815.59;5060243;28;20131;-64
2023/03/27 05:00:31;;;;;;;5.05;2.33;;;;;;;1.66;100.00;101822.53;5067209;28;20138;-64
2023/03/27 05:02:59;;;;;;;7.03;2.28;;;;;;;1.65;100.00;101821.66;5044073;28;20044;-64
2023/03/27 05:05:25;;;;;;;8.15;2.40;;;;;;;1.65;100.00;101824.28;5065712;28;20111;-64
2023/03/27 05:07:51;;;;;;;8.80;2.47;;;;;;;1.63;100.00;101826.09;5058741;28;20025;-64
2023/03/27 05:10:16;;;;;;;7.55;2.38;;;;;;;1.65;100.00;101837.38;5058051;28;20025;-64
2023/03/27 05:12:43;;;;;;;12.65;2.45;;;;;;;1.63;100.00;101833.94;5058231;28;20024;-64
2023/03/27 05:15:09;;;;;;;8.38;2.42;;;;;;;1.63;100.00;101840.91;5061654;28;20025;-64
2023/03/27 05:17:39;;;;;;;5.28;2.25;;;;;;;1.65;100.00;101845.25;5043740;28;20025;-64
2023/03/27 05:20:07;;;;;;;6.75;2.70;;;;;;;1.66;100.00;101853.94;5052431;28;20044;-64
2023/03/27 05:22:32;;;;;;;13.80;2.65;;;;;;;1.64;100.00;101851.34;5060207;28;20497;-64
2023/03/27 05:24:58;;;;;;;10.50;2.42;;;;;;;1.66;100.00;101853.94;5062261;28;20033;-64
2023/03/27 05:27:24;;;;;;;11.30;2.40;;;;;;;1.69;100.00;101866.13;5058868;28;20070;-64
2023/03/27 05:29:49;;;;;;;7.68;2.70;;;;;;;1.69;100.00;101868.75;5058949;28;20029;-64
2023/03/27 05:32:14;;;;;;;6.22;2.58;;;;;;;1.71;100.00;101865.16;5048710;28;20031;-64
2023/03/27 05:34:41;;;;;;;10.80;2.60;;;;;;;1.72;100.00;101873.91;5067534;28;20041;-64
2023/03/27 05:37:06;;;;;;;5.65;2.60;;;;;;;1.74;100.00;101872.97;5060649;28;20025;-64
2023/03/27 05:39:31;;;;;;;8.15;2.40;;;;;;;1.75;100.00;101879.06;5050378;28;20459;-65
2023/03/27 05:41:57;;;;;;;6.35;2.60;;;;;;;1.76;100.00;101873.78;5061304;28;20140;-64
2023/03/27 05:44:22;;;;;;;7.03;2.85;;;;;;;1.79;100.00;101873.72;5052937;28;20037;-64
2023/03/27 05:46:47;;;;;;;7.85;3.20;;;;;;;1.82;100.00;101878.88;5063207;28;20064;-64
2023/03/27 05:49:14;;;;;;;8.90;3.22;;;;;;;1.82;100.00;101883.28;5050115;28;20037;-64
2023/03/27 05:51:40;;;;;;;11.48;3.45;;;;;;;1.85;100.00;101888.44;5062633;28;20041;-64
2023/03/27 05:54:05;;;;;;;10.68;4.13;;;;;;;1.87;100.00;101891.03;5066604;28;20538;-64
2023/03/27 05:56:30;;;;;;;15.00;4.97;;;;;;;1.87;100.00;101894.50;5051504;28;20087;-64
2023/03/27 05:58:56;;;;;;;12.52;4.80;;;;;;;1.89;100.00;101897.94;5054820;28;20033;-63
2023/03/27 06:01:22;;;;;;;11.48;4.20;;;;;;;1.90;100.00;101896.16;5066162;28;20020;-64
2023/03/27 06:03:48;;;;;;;11.70;3.92;;;;;;;1.90;100.00;101901.41;5052089;28;20116;-63
2023/03/27 06:06:14;;;;;;;12.07;4.30;;;;;;;1.91;100.00;101901.38;5036091;28;20025;-63
2023/03/27 06:08:40;;;;;;;9.73;4.05;;;;;;;1.93;100.00;101909.22;5059792;28;20763;-63
2023/03/27 06:11:14;;;;;;;9.60;3.50;;;;;;;1.96;100.00;101923.09;5045963;28;20021;-63
2023/03/27 06:13:39;;;;;;;13.02;3.20;;;;;;;1.99;100.00;101932.66;5052945;28;20024;-64
2023/03/27 06:16:05;;;;;;;6.43;2.70;;;;;;;2.01;100.00;101950.03;5058055;28;20056;-64
2023/03/27 06:18:32;;;;;;;5.03;2.80;;;;;;;2.03;100.00;101950.00;5065021;28;20116;-64
2023/03/27 06:20:58;;;;;;;5.38;3.08;;;;;;;2.02;100.00;101951.78;5056436;28;20040;-65
2023/03/27 06:23:23;;;;;;;8.48;3.10;;;;;;;2.00;100.00;101948.34;5053501;28;20031;-65
2023/03/27 06:25:50;;;;;;;6.78;3.17;;;;;;;1.98;100.00;101950.16;5051697;28;20072;-65
2023/03/27 06:28:15;;;;;;;7.88;3.00;;;;;;;1.97;100.00;101943.16;5049807;28;20355;-65
2023/03/27 06:30:41;;;;;;;7.30;3.38;;;;;;;1.97;100.00;101947.56;5061954;28;20029;-64
2023/03/27 06:33:06;;;;;;;6.72;3.10;;;;;;;1.96;100.00;101957.16;5052585;28;20434;-64
2023/03/27 06:35:33;;;;;;;4.30;2.95;;;;;;;1.98;100.00;101950.16;5058582;28;20101;-64
2023/03/27 06:38:01;;;;;;;6.20;3.35;;;;;;;1.97;100.00;101947.56;5052666;28;20037;-64
2023/03/27 06:40:28;;;;;;;6.85;3.42;;;;;;;1.99;100.00;101958.84;5050957;28;20158;-64
2023/03/27 06:42:59;;;;;;;5.63;3.67;;;;;;;1.98;100.00;101965.88;5049975;28;20057;-64
2023/03/27 06:45:27;;;;;;;6.80;3.05;;;;;;;1.97;100.00;101958.88;5043716;28;20031;-64
2023/03/27 06:47:58;;;;;;;6.90;3.30;;;;;;;1.98;100.00;101964.97;5049720;28;20043;-64
2023/03/27 06:50:26;;;;;;;7.85;3.20;;;;;;;2.00;100.00;101964.06;5067117;28;20153;-64
2023/03/27 06:52:51;;;;;;;5.65;2.78;;;;;;;2.02;100.00;101970.13;5064399;28;20498;-64
2023/03/27 06:55:19;;;;;;;5.68;3.55;;;;;;;2.02;100.00;101977.97;5055909;28;20111;-64
2023/03/27 06:57:46;;;;;;;6.88;3.30;;;;;;;2.04;100.00;101976.19;5060112;28;20040;-63
2023/03/27 07:00:19;;;;;;;5.50;3.08;;;;;;;2.08;100.00;101991.84;5057729;28;20040;-64
2023/03/27 07:02:45;;;;;;;5.30;3.20;;;;;;;2.11;100.00;101984.75;5057202;28;20890;-64
2023/03/27 07:05:11;;;;;;;6.78;3.28;;;;;;;2.10;100.00;101990.03;5055500;28;20025;-64
2023/03/27 07:07:37;;;;;;;7.47;3.10;;;;;;;2.15;100.00;101985.56;5055064;28;20029;-64
2023/03/27 07:10:03;;;;;;;7.00;3.05;;;;;;;2.16;100.00;101993.38;5060551;28;20029;-64
2023/03/27 07:12:29;;;;;;;5.40;2.83;;;;;;;2.18;100.00;101986.38;5040481;28;20069;-64
2023/03/27 07:14:54;;;;;;;6.30;2.92;;;;;;;2.22;100.00;101998.50;5057241;28;20430;-63
2023/03/27 07:17:19;;;;;;;5.95;2.97;;;;;;;2.27;100.00;102001.00;5056035;28;20127;-64
2023/03/27 07:19:45;;;;;;;8.63;3.38;;;;;;;2.32;100.00;102004.38;5055295;28;20409;-64
2023/03/27 07:22:10;;;;;;;5.07;2.97;;;;;;;2.39;100.00;101999.88;5060991;28;20041;-64
2023/03/27 07:24:35;;;;;;;6.82;3.40;;;;;;;2.48;100.00;102004.00;5055979;28;20074;-63
2023/03/27 07:27:01;;;;;;;8.00;3.47;;;;;;;2.58;100.00;102008.13;5043769;28;20029;-64
2023/03/27 07:29:26;;;;;;;5.18;3.22;;;;;;;2.70;100.00;102005.22;5053045;28;20024;-64
2023/03/27 07:31:51;;;;;;;7.13;3.33;;;;;;;2.80;100.00;102010.22;5037885;28;20029;-65
2023/03/27 07:34:17;;;;;;;7.18;3.10;;;;;;;2.93;100.00;102015.16;5034045;28;20033;-64
2023/03/27 07:36:43;;;;;;;9.77;3.10;;;;;;;3.12;100.00;102015.50;5035366;28;20104;-64
2023/03/27 07:39:11;;;;;;;9.00;2.85;;;;;;;3.25;100.00;102021.31;5037511;28;20500;-64
2023/03/27 07:41:36;;;;;;;5.07;2.42;;;;;;;3.52;100.00;102030.16;5039473;28;20433;-64
2023/03/27 07:44:02;;;;;;;4.80;2.55;;;;;;;3.69;100.00;102013.94;5039365;28;20036;-64
2023/03/27 07:46:27;;;;;;;6.90;2.63;;;;;;;3.93;100.00;102018.50;5036583;28;20033;-64
2023/03/27 07:48:54;;;;;;;6.80;2.75;;;;;;;4.12;100.00;102027.56;5034677;28;20104;-64
2023/03/27 07:51:19;;;;;;;6.93;2.55;;;;;;;4.34;99.38;102024.28;5034415;28;20398;-64
2023/03/27 07:53:45;;;;;;;7.07;2.33;;;;;;;4.61;99.18;102027.78;5031861;28;20017;-64
2023/03/27 07:56:11;;;;;;;11.27;2.40;;;;;;;4.89;98.76;102034.78;5033427;28;20122;-64
2023/03/27 07:58:36;;;;;;;9.48;2.83;;;;;;;5.07;97.84;102025.41;5043775;28;20056;-64
2023/03/27 08:01:02;;;;;;;9.07;2.60;;;;;;;5.24;94.17;102036.19;5039788;28;20059;-64
2023/03/27 08:03:29;;;;;;;9.68;2.33;;;;;;;5.52;93.94;102037.84;5033102;28;20044;-64
2023/03/27 08:05:57;;;;;;;6.30;1.90;;;;;;;5.71;92.11;102036.28;5038183;28;20450;-64
2023/03/27 08:08:23;;;;;;;9.80;3.05;;;;;;;5.96;89.87;102037.09;5035223;28;20021;-64
2023/03/27 08:10:50;;;;;;;6.57;2.08;;;;;;;6.13;88.48;102037.38;5041613;28;20025;-64
2023/03/27 08:13:15;;;;;;;9.82;2.25;;;;;;;6.29;84.43;102040.25;5046757;28;20072;-64
2023/03/27 08:15:41;;;;;;;8.02;2.28;;;;;;;6.46;87.11;102036.94;5054317;28;20056;-63
2023/03/27 08:18:07;;;;;;;6.82;2.28;;;;;;;6.64;85.98;102043.25;5062806;28;20398;-64
2023/03/27 08:20:33;;;;;;;7.88;1.92;;;;;;;6.72;83.34;102057.00;5056356;28;20029;-64
2023/03/27 08:22:59;;;;;;;8.45;2.50;;;;;;;6.76;83.92;102057.72;5065823;28;20103;-64
2023/03/27 08:25:26;;;;;;;7.35;2.35;;;;;;;6.75;81.49;102071.88;5048359;28;20021;-64
2023/03/27 08:27:51;;;;;;;5.63;2.08;;;;;;;6.56;81.31;102063.81;5030963;28;20035;-64
2023/03/27 08:30:18;;;;;;;7.03;2.30;;;;;;;6.37;83.29;102061.91;5038020;28;20021;-64
2023/03/27 08:32:43;;;;;;;3.38;1.15;;;;;;;6.37;81.72;102066.34;5042101;28;20075;-64
2023/03/27 08:35:09;;;;;;;2.63;1.10;;;;;;;6.38;80.72;102070.69;5044814;28;20028;-64
2023/03/27 08:37:35;;;;;;;3.90;1.50;;;;;;;6.50;83.07;102066.72;5054246;28;20394;-64
2023/03/27 08:40:00;;;;;;;7.25;1.90;;;;;;;6.54;80.64;102074.44;5054414;28;20021;-64
2023/03/27 08:42:55;;;;;;;11.93;2.20;;;;;;;6.75;84.39;102072.72;5053585;28;20446;-64
2023/03/27 08:45:36;;;;;;;7.47;1.80;;;;;;;6.94;81.18;102075.47;5051778;28;20040;-65
2023/03/27 08:48:08;;;;;;;10.32;2.10;;;;;;;7.12;80.28;102073.84;5045303;28;20112;-64
2023/03/27 08:50:51;;;;;;;9.65;1.92;;;;;;;7.45;81.50;102075.97;5054501;28;20036;-64
2023/03/27 08:53:35;;;;;;;4.05;1.75;;;;;;;7.77;82.04;102079.81;5040876;28;20035;-64
2023/03/27 08:56:02;;;;;;;6.90;2.10;;;;;;;8.12;81.13;102071.19;5031342;28;20035;-64
2023/03/27 08:58:28;;;;;;;7.03;1.90;;;;;;;8.26;75.31;102083.75;5037627;28;20029;-64
2023/03/27 09:01:12;;;;;;;8.25;2.15;;;;;;;8.36;76.59;102086.84;5055845;28;20508;-64
2023/03/27 09:03:46;;;;;;;5.78;2.15;;;;;;;8.54;74.73;102095.75;5046018;28;20017;-64
2023/03/27 09:06:24;;;;;;;6.53;1.80;;;;;;;8.71;72.48;102098.44;5049157;28;20056;-63
2023/03/27 09:09:36;;;;;;;4.20;1.52;;;;;;;8.81;73.97;102091.75;5066572;28;20025;-63
2023/03/27 09:12:04;;;;;;;9.77;2.00;;;;;;;8.96;69.20;102090.16;5041226;28;20052;-64
2023/03/27 09:14:34;;;;;;;6.05;1.60;;;;;;;9.09;68.39;102098.31;5048707;28;20037;-64
2023/03/27 09:17:09;;;;;;;3.38;1.38;;;;;;;9.31;67.07;102092.81;5031099;28;20033;-64
2023/03/27 09:19:46;;;;;;;3.22;1.33;;;;;;;9.62;69.40;102094.69;5047907;28;20025;-64
2023/03/27 09:22:21;;;;;;;10.70;1.80;;;;;;;9.95;66.26;102115.09;5049271;28;20502;-63
2023/03/27 09:24:49;;;;;;;6.40;1.40;;;;;;;9.69;65.35;102139.47;5054540;28;20153;-63
2023/03/27 09:27:27;;;;;;;4.50;1.05;;;;;;;9.12;68.29;102148.53;5040953;28;20021;-63
2023/03/27 09:30:22;;;;;;;2.65;1.13;;;;;;;8.75;70.73;102158.28;5047702;28;20048;-64
2023/03/27 09:32:50;;;;;;;5.13;1.20;;;;;;;8.18;69.39;102171.47;5047080;28;20067;-63
2023/03/27 09:35:19;;;;;;;4.10;1.30;;;;;;;7.88;72.60;102174.56;5060773;28;20076;-64
2023/03/27 09:37:46;;;;;;;2.92;1.25;;;;;;;7.67;71.55;102162.28;5050541;28;20037;-64
2023/03/27 09:40:43;;;;;;;2.97;0.80;;;;;;;7.61;73.72;102152.84;5064825;28;20484;-64
2023/03/27 09:43:16;;;;;;;6.55;1.15;;;;;;;7.27;74.12;102151.59;5055786;28;20021;-63
2023/03/27 09:45:43;;;;;;;5.20;1.40;;;;;;;7.20;76.35;102126.38;5051034;28;20025;-64
2023/03/27 09:48:18;;;;;;;4.40;1.00;;;;;;;7.16;78.18;102133.56;5053967;28;20025;-63
2023/03/27 09:50:46;;;;;;;2.03;0.70;;;;;;;7.10;76.24;102143.53;5046715;28;20041;-65
2023/03/27 09:53:21;;;;;;;1.27;1.17;;;;;;;7.13;76.53;102143.41;5038915;28;20075;-64
2023/03/27 09:55:53;;;;;;;2.50;1.00;;;;;;;7.13;76.71;102146.06;5043279;28;20477;-64
2023/03/27 09:58:32;;;;;;;2.92;1.20;;;;;;;7.31;77.89;102155.84;5035771;28;20438;-64
2023/03/27 10:01:12;;;;;;;5.28;1.05;;;;;;;7.39;76.25;102151.09;5055336;28;20032;-64
2023/03/27 10:03:42;;;;;;;3.53;1.30;;;;;;;7.42;74.14;102160.66;5041708;28;20072;-64
2023/03/27 10:06:12;;;;;;;3.92;1.65;;;;;;;7.53;74.29;102163.72;5045726;28;20033;-64
2023/03/27 10:08:49;;;;;;;;;;;;;;;7.80;77.59;102170.53;5053583;28;20033;-64
2023/03/27 10:11:19;;;;;;;3.42;1.38;;;;;;;8.01;73.29;102171.38;5038698;28;19921;-64
2023/03/27 10:13:46;;;;;;;5.65;1.52;;;;;;;8.26;74.23;102179.94;5055400;28;20036;-64
2023/03/27 10:16:16;;;;;;;4.15;1.58;;;;;;;8.54;74.87;102178.69;5046287;28;20052;-64
2023/03/27 10:18:44;;;;;;;6.35;1.80;;;;;;;8.80;73.07;102168.66;5055916;28;20025;-63
2023/03/27 10:21:15;;;;;;;6.25;1.67;;;;;;;8.93;71.29;102169.78;5061173;28;20385;-64
2023/03/27 10:23:42;;;;;;;4.90;1.58;;;;;;;9.19;71.75;102159.69;5052845;28;20025;-63
2023/03/27 10:26:12;;;;;;;6.20;1.58;;;;;;;9.39;72.87;102154.25;5059348;28;20044;-64
2023/03/27 10:28:43;;;;;;;3.95;1.48;;;;;;;9.42;68.58;102174.44;5051956;28;20021;-63
2023/03/27 10:31:24;;;;;;;4.72;1.20;;;;;;;9.54;70.58;102159.69;5041183;28;20065;-64
2023/03/27 10:33:49;;;;;;;6.18;1.10;;;;;;;9.72;69.29;102165.84;5054538;28;20040;-64
2023/03/27 10:36:16;;;;;;;1.73;0.98;;;;;;;10.02;70.85;102160.72;5044395;28;20029;-64
2023/03/27 10:38:42;;;;;;;3.22;1.38;;;;;;;10.04;64.74;102165.97;5040474;28;20145;-63
2023/03/27 10:41:16;;;;;;;2.15;1.10;;;;;;;10.05;66.14;102155.25;5053224;28;20055;-61
2023/03/27 10:43:47;;;;;;;5.38;1.38;;;;;;;10.28;64.21;102159.34;5067600;28;20031;-61
2023/03/27 10:46:16;;;;;;;3.92;1.67;;;;;;;10.49;66.52;102159.13;5056881;28;20045;-61
2023/03/27 10:49:00;;;;;;;4.15;1.20;;;;;;;10.73;63.33;102160.44;5070042;28;20032;-61
2023/03/27 10:51:45;;;;;;;2.88;1.30;;;;;;;10.85;62.00;102166.00;5056313;28;20522;-61
2023/03/27 10:54:25;;;;;;;3.58;1.30;;;;;;;11.06;61.07;102169.25;5061853;28;20037;-63
2023/03/27 10:56:55;;;;;;;5.00;1.20;;;;;;;11.29;61.54;102165.22;5058578;28;20544;-64
2023/03/27 10:59:46;;;;;;;3.53;1.17;;;;;;;11.50;64.17;102183.56;5049443;28;20029;-64
2023/03/27 11:02:17;;;;;;;6.50;1.80;;;;;;;11.25;61.78;102204.44;5048152;28;20046;-63
2023/03/27 11:04:53;;;;;;;4.55;1.52;;;;;;;10.73;63.74;102210.91;5056131;28;20119;-64
2023/03/27 11:07:26;;;;;;;4.95;1.38;;;;;;;10.34;66.98;102216.59;5038388;28;20064;-64
2023/03/27 11:10:18;;;;;;;4.13;1.20;;;;;;;10.16;69.12;102229.91;5050324;28;20026;-64
2023/03/27 11:12:54;;;;;;;3.92;1.35;;;;;;;9.77;67.78;102215.09;5041279;28;20060;-64
2023/03/27 11:15:42;;;;;;;5.65;1.20;;;;;;;9.50;71.55;102214.69;5063412;28;20378;-63
2023/03/27 11:18:16;;;;;;;3.92;1.50;;;;;;;9.21;72.26;102224.97;5052782;28;20460;-63
2023/03/27 11:21:03;;;;;;;2.83;1.40;;;;;;;9.35;73.06;102226.94;5051922;28;20089;-63
2023/03/27 11:23:51;;;;;;;4.18;1.55;;;;;;;9.50;72.98;102214.69;5050176;28;20037;-62
2023/03/27 11:26:18;;;;;;;3.85;1.60;;;;;;;9.46;73.31;102223.75;5064757;28;20081;-63
2023/03/27 11:28:51;;;;;;;6.68;1.70;;;;;;;9.43;71.53;102227.41;5056401;28;20064;-64
2023/03/27 11:31:44;;;;;;;3.80;1.67;;;;;;;9.53;71.98;102217.22;5047936;28;20064;-62
2023/03/27 11:34:41;;;;;;;7.57;1.58;;;;;;;9.72;73.16;102217.13;5055787;28;20082;-62
2023/03/27 11:37:19;;;;;;;5.10;1.67;;;;;;;9.87;70.47;102223.44;5065700;28;20102;-61
2023/03/27 11:39:44;;;;;;;3.85;1.63;;;;;;;9.82;67.72;102223.69;5065111;28;20028;-61
2023/03/27 11:42:16;;;;;;;4.30;1.63;;;;;;;9.88;69.22;102221.66;5050271;28;20021;-63
2023/03/27 11:44:42;;;;;;;4.60;1.48;;;;;;;9.82;68.86;102215.75;5051756;28;20266;-63